createdAt,value
2023-03-04T00:01:16.860Z,57.56
2023-03-04T00:03:43.428Z,57.66
2023-03-04T00:06:11.815Z,57.76
2023-03-04T00:08:38.464Z,57.71
2023-03-04T00:11:05.158Z,57.68
2023-03-04T00:13:31.772Z,57.06
2023-03-04T00:15:58.391Z,57.33
2023-03-04T00:18:24.963Z,57.07
2023-03-04T00:20:51.571Z,57.57
2023-03-04T00:23:18.342Z,58.60
2023-03-04T00:25:44.898Z,58.70
2023-03-04T00:28:11.462Z,59.22
2023-03-04T00:30:37.960Z,59.01
2023-03-04T00:33:04.445Z,59.92
2023-03-04T00:35:31.077Z,59.86
2023-03-04T00:37:57.611Z,59.72
2023-03-04T00:40:26.185Z,60.63
2023-03-04T00:42:55.647Z,61.15
2023-03-04T00:45:22.161Z,61.08
2023-03-04T00:47:48.700Z,61.52
2023-03-04T00:50:15.300Z,60.80
2023-03-04T00:52:42.132Z,61.77
2023-03-04T00:55:09.173Z,61.50
2023-03-04T00:57:35.896Z,61.60
2023-03-04T01:00:02.617Z,61.18
2023-03-04T01:02:29.238Z,61.67
2023-03-04T01:04:55.870Z,62.15
2023-03-04T01:07:22.434Z,62.07
2023-03-04T01:09:48.932Z,62.11
2023-03-04T01:12:15.467Z,62.10
2023-03-04T01:14:42.004Z,62.19
2023-03-04T01:17:08.583Z,62.07
2023-03-04T01:19:35.097Z,62.56
2023-03-04T01:22:01.622Z,62.47
2023-03-04T01:24:30.026Z,62.33
2023-03-04T01:26:56.707Z,62.82
2023-03-04T01:29:23.288Z,62.29
2023-03-04T01:31:49.835Z,63.26
2023-03-04T01:34:18.140Z,62.03
2023-03-04T01:36:44.654Z,63.08
2023-03-04T01:39:11.212Z,62.65
2023-03-04T01:41:37.779Z,63.08
2023-03-04T01:44:04.510Z,63.60
2023-03-04T01:46:31.641Z,63.18
2023-03-04T01:48:59.259Z,63.58
2023-03-04T01:51:25.907Z,63.52
2023-03-04T01:53:54.911Z,63.68
2023-03-04T01:56:29.242Z,63.79
2023-03-04T01:59:16.081Z,64.38
2023-03-04T02:02:01.223Z,63.83
2023-03-04T02:04:34.377Z,63.78
2023-03-04T02:07:02.951Z,63.75
2023-03-04T02:09:30.883Z,64.23
2023-03-04T02:11:57.987Z,63.97
2023-03-04T02:14:24.783Z,64.69
2023-03-04T02:16:51.809Z,64.96
2023-03-04T02:19:46.449Z,64.15
2023-03-04T02:22:13.182Z,64.71
2023-03-04T02:24:45.479Z,64.18
2023-03-04T02:27:12.287Z,64.72
2023-03-04T02:29:38.814Z,65.18
2023-03-04T02:32:05.559Z,65.01
2023-03-04T02:34:35.770Z,64.85
2023-03-04T02:37:04.017Z,64.61
2023-03-04T02:39:33.922Z,64.77
2023-03-04T02:42:01.864Z,65.24
2023-03-04T02:44:29.838Z,64.92
2023-03-04T02:46:57.730Z,65.79
2023-03-04T02:49:26.442Z,64.95
2023-03-04T02:51:58.858Z,65.58
2023-03-04T02:54:25.386Z,65.65
2023-03-04T02:56:54.308Z,65.41
2023-03-04T02:59:22.827Z,66.13
2023-03-04T03:01:50.076Z,65.99
2023-03-04T03:04:17.201Z,65.05
2023-03-04T03:06:43.732Z,66.27
2023-03-04T03:09:10.320Z,65.74
2023-03-04T03:11:37.016Z,66.27
2023-03-04T03:14:04.094Z,66.24
2023-03-04T03:16:30.818Z,66.67
2023-03-04T03:18:57.922Z,66.44
2023-03-04T03:21:24.618Z,66.07
2023-03-04T03:23:51.264Z,66.50
2023-03-04T03:26:18.508Z,67.21
2023-03-04T03:28:45.330Z,66.73
2023-03-04T03:31:12.000Z,66.74
2023-03-04T03:33:38.639Z,67.15
2023-03-04T03:36:05.844Z,66.67
2023-03-04T03:38:32.787Z,67.37
2023-03-04T03:40:59.298Z,67.53
2023-03-04T03:43:25.923Z,67.56
2023-03-04T03:45:52.496Z,67.92
2023-03-04T03:48:19.043Z,67.01
2023-03-04T03:50:45.809Z,67.48
2023-03-04T03:53:12.548Z,67.57
2023-03-04T03:55:39.333Z,67.35
2023-03-04T03:58:06.526Z,67.18
2023-03-04T04:00:33.081Z,67.07
2023-03-04T04:03:00.930Z,67.05
2023-03-04T04:05:27.561Z,67.27
2023-03-04T04:07:54.349Z,67.71
2023-03-04T04:10:21.702Z,67.68
2023-03-04T04:12:48.293Z,68.25
2023-03-04T04:15:15.025Z,67.95
2023-03-04T04:17:41.616Z,68.00
2023-03-04T04:20:09.054Z,68.34
2023-03-04T04:22:35.661Z,68.51
2023-03-04T04:25:02.269Z,68.11
2023-03-04T04:27:28.927Z,68.42
2023-03-04T04:29:55.479Z,68.29
2023-03-04T04:32:22.117Z,68.61
2023-03-04T04:34:48.744Z,68.08
2023-03-04T04:37:18.287Z,68.17
2023-03-04T04:39:44.812Z,68.08
2023-03-04T04:42:11.948Z,67.85
2023-03-04T04:44:39.141Z,68.72
2023-03-04T04:47:09.855Z,67.60
2023-03-04T04:49:39.013Z,68.49
2023-03-04T04:52:05.900Z,68.22
2023-03-04T04:54:32.511Z,68.20
2023-03-04T04:56:59.008Z,68.74
2023-03-04T04:59:25.570Z,67.92
2023-03-04T05:01:52.119Z,68.07
2023-03-04T05:04:18.643Z,68.22
2023-03-04T05:06:45.209Z,68.14
2023-03-04T05:09:12.902Z,68.69
2023-03-04T05:11:39.714Z,67.88
2023-03-04T05:14:06.354Z,68.18
2023-03-04T05:16:33.360Z,67.27
2023-03-04T05:18:59.921Z,67.84
2023-03-04T05:21:26.512Z,67.54
2023-03-04T05:23:53.152Z,68.03
2023-03-04T05:26:19.976Z,67.72
2023-03-04T05:28:46.905Z,68.58
2023-03-04T05:31:13.773Z,68.17
2023-03-04T05:33:40.682Z,68.27
2023-03-04T05:36:10.193Z,67.71
2023-03-04T05:38:37.215Z,67.96
2023-03-04T05:41:06.359Z,68.49
2023-03-04T05:43:35.979Z,68.49
2023-03-04T05:46:04.232Z,68.68
2023-03-04T05:48:31.006Z,68.61
2023-03-04T05:50:59.976Z,69.19
2023-03-04T05:53:27.055Z,69.22
2023-03-04T05:55:53.657Z,69.45
2023-03-04T05:58:20.639Z,69.40
2023-03-04T06:00:47.943Z,69.47
2023-03-04T06:03:19.929Z,69.16
2023-03-04T06:05:46.617Z,68.85
2023-03-04T06:08:13.790Z,69.16
2023-03-04T06:10:41.638Z,69.31
2023-03-04T06:13:09.701Z,69.14
2023-03-04T06:15:36.384Z,69.65
2023-03-04T06:18:03.422Z,69.31
2023-03-04T06:20:30.288Z,68.75
2023-03-04T06:22:56.857Z,68.87
2023-03-04T06:25:23.990Z,67.98
2023-03-04T06:27:51.004Z,67.85
2023-03-04T06:30:18.554Z,67.13
2023-03-04T06:32:46.162Z,67.02
2023-03-04T06:35:13.123Z,65.96
2023-03-04T06:37:40.063Z,66.18
2023-03-04T06:40:07.979Z,66.03
2023-03-04T06:42:35.794Z,66.04
2023-03-04T06:45:03.748Z,65.15
2023-03-04T06:47:30.270Z,65.27
2023-03-04T06:49:56.848Z,64.56
2023-03-04T06:52:23.625Z,64.07
2023-03-04T06:54:50.195Z,64.23
2023-03-04T06:57:17.065Z,63.49
2023-03-04T06:59:43.644Z,63.52
2023-03-04T07:02:13.529Z,62.88
2023-03-04T07:04:40.488Z,63.21
2023-03-04T07:07:07.135Z,63.10
2023-03-04T07:09:33.834Z,62.65
2023-03-04T07:12:00.481Z,62.87
2023-03-04T07:14:27.965Z,61.89
2023-03-04T07:16:55.200Z,61.86
2023-03-04T07:19:22.298Z,62.45
2023-03-04T07:21:48.804Z,62.34
2023-03-04T07:24:15.358Z,62.84
2023-03-04T07:26:41.957Z,62.54
2023-03-04T07:29:08.551Z,62.04
2023-03-04T07:31:35.749Z,62.42
2023-03-04T07:34:04.933Z,61.21
2023-03-04T07:36:32.672Z,61.42
2023-03-04T07:38:59.236Z,61.39
2023-03-04T07:41:28.031Z,61.47
2023-03-04T07:43:56.478Z,61.53
2023-03-04T07:46:23.193Z,61.58
2023-03-04T07:48:49.861Z,62.05
2023-03-04T07:51:22.199Z,61.13
2023-03-04T07:53:52.135Z,60.29
2023-03-04T07:56:25.185Z,60.02
2023-03-04T07:58:54.872Z,59.99
2023-03-04T08:01:25.042Z,60.37
2023-03-04T08:03:52.137Z,59.78
2023-03-04T08:06:20.455Z,59.96
2023-03-04T08:08:48.387Z,59.53
2023-03-04T08:11:20.710Z,60.24
2023-03-04T08:13:48.410Z,59.87
2023-03-04T08:16:17.503Z,59.91
2023-03-04T08:18:45.754Z,60.12
2023-03-04T08:21:14.296Z,58.93
2023-03-04T08:23:42.600Z,59.20
2023-03-04T08:26:15.959Z,59.45
2023-03-04T08:28:45.858Z,58.58
2023-03-04T08:31:17.108Z,57.87
2023-03-04T08:33:44.603Z,56.96
2023-03-04T08:36:11.474Z,57.42
2023-03-04T08:38:38.295Z,56.51
2023-03-04T08:41:05.080Z,56.97
2023-03-04T08:43:32.412Z,56.37
2023-03-04T08:45:59.483Z,57.22
2023-03-04T08:48:26.414Z,56.40
2023-03-04T08:50:56.346Z,55.93
2023-03-04T08:53:25.078Z,56.21
2023-03-04T08:55:53.166Z,56.19
2023-03-04T08:58:19.855Z,55.46
2023-03-04T09:00:48.539Z,54.97
2023-03-04T09:03:16.481Z,54.85
2023-03-04T09:05:45.079Z,55.06
2023-03-04T09:08:11.619Z,54.88
2023-03-04T09:10:38.192Z,54.80
2023-03-04T09:13:06.333Z,54.12
2023-03-04T09:15:36.082Z,54.93
2023-03-04T09:18:03.883Z,54.92
2023-03-04T09:20:31.712Z,54.22
2023-03-04T09:22:58.306Z,54.22
2023-03-04T09:25:24.873Z,53.95
2023-03-04T09:27:51.471Z,54.20
2023-03-04T09:30:18.353Z,53.51
2023-03-04T09:32:44.909Z,53.05
2023-03-04T09:35:11.747Z,52.38
2023-03-04T09:37:41.224Z,52.05
2023-03-04T09:40:09.889Z,52.19
2023-03-04T09:42:47.258Z,53.43
2023-03-04T09:45:18.135Z,52.78
2023-03-04T09:47:45.649Z,52.91
2023-03-04T09:50:13.374Z,53.17
2023-03-04T09:52:45.672Z,51.87
2023-03-04T09:55:17.894Z,51.73
2023-03-04T09:57:57.378Z,51.91
2023-03-04T10:00:32.637Z,51.22
2023-03-04T10:03:05.118Z,51.64
2023-03-04T10:05:34.452Z,51.88
2023-03-04T10:08:18.440Z,51.65
2023-03-04T10:10:46.956Z,51.74
2023-03-04T10:13:22.471Z,51.81
2023-03-04T10:15:51.371Z,51.82
2023-03-04T10:18:25.603Z,51.85
2023-03-04T10:21:20.323Z,52.56
2023-03-04T10:23:48.373Z,52.45
2023-03-04T10:26:20.904Z,52.73
2023-03-04T10:28:49.091Z,52.58
2023-03-04T10:31:30.738Z,52.61
2023-03-04T10:33:57.210Z,52.97
2023-03-04T10:36:29.733Z,52.30
2023-03-04T10:39:08.609Z,51.95
2023-03-04T10:41:35.399Z,52.00
2023-03-04T10:44:16.464Z,49.99
2023-03-04T10:46:48.346Z,49.46
2023-03-04T10:49:17.693Z,48.98
2023-03-04T10:51:50.468Z,48.50
2023-03-04T10:54:22.420Z,49.05
2023-03-04T10:57:19.714Z,48.88
2023-03-04T10:59:57.112Z,48.75
2023-03-04T11:02:27.583Z,48.66
2023-03-04T11:05:04.952Z,48.84
2023-03-04T11:07:43.564Z,49.61
2023-03-04T11:10:40.536Z,49.83
2023-03-04T11:13:26.839Z,49.42
2023-03-04T11:15:53.372Z,49.38
2023-03-04T11:18:47.032Z,49.90
2023-03-04T11:21:25.718Z,50.03
2023-03-04T11:23:57.448Z,50.19
2023-03-04T11:26:31.287Z,49.50
2023-03-04T11:29:00.533Z,49.56
2023-03-04T11:31:45.415Z,49.59
2023-03-04T11:34:23.144Z,49.25
2023-03-04T11:36:59.872Z,50.25
2023-03-04T11:39:44.086Z,50.07
2023-03-04T11:42:19.479Z,49.92
2023-03-04T11:44:46.102Z,49.96
2023-03-04T11:47:28.518Z,48.85
2023-03-04T11:50:49.492Z,49.31
2023-03-04T11:53:26.807Z,48.58
2023-03-04T11:56:11.352Z,48.92
2023-03-04T11:58:37.895Z,48.67
2023-03-04T12:01:14.374Z,48.85
2023-03-04T12:03:47.971Z,48.69
2023-03-04T12:06:52.103Z,48.69
2023-03-04T12:09:18.587Z,48.88
2023-03-04T12:11:45.190Z,48.62
2023-03-04T12:14:26.952Z,48.18
2023-03-04T12:17:22.504Z,48.66
2023-03-04T12:20:23.052Z,48.40
2023-03-04T12:23:18.153Z,48.14
2023-03-04T12:26:12.028Z,47.96
2023-03-04T12:29:01.716Z,47.78
2023-03-04T12:31:36.058Z,47.72
2023-03-04T12:34:50.376Z,47.84
2023-03-04T12:37:41.815Z,48.01
2023-03-04T12:40:27.318Z,47.27
2023-03-04T12:43:21.497Z,47.73
2023-03-04T12:46:15.746Z,48.54
2023-03-04T12:48:53.263Z,52.61
2023-03-04T12:51:32.982Z,50.68
2023-03-04T12:54:16.202Z,48.01
2023-03-04T12:56:52.415Z,47.75
2023-03-04T12:59:21.143Z,47.74
2023-03-04T13:01:59.278Z,48.32
2023-03-04T13:04:53.532Z,48.12
2023-03-04T13:07:38.894Z,46.22
2023-03-04T13:10:09.481Z,46.70
2023-03-04T13:12:58.144Z,45.98
2023-03-04T13:15:24.927Z,46.00
2023-03-04T13:17:54.622Z,46.80
2023-03-04T13:20:30.363Z,46.91
2023-03-04T13:23:09.212Z,47.85
2023-03-04T13:25:44.241Z,47.04
2023-03-04T13:28:13.848Z,46.75
2023-03-04T13:30:57.175Z,47.17
2023-03-04T13:33:23.682Z,47.37
2023-03-04T13:36:04.100Z,46.59
2023-03-04T13:38:39.418Z,46.82
2023-03-04T13:41:24.984Z,46.05
2023-03-04T13:43:52.212Z,48.02
2023-03-04T13:46:18.924Z,46.40
2023-03-04T13:48:51.619Z,46.47
2023-03-04T13:51:30.098Z,46.75
2023-03-04T13:53:59.471Z,46.60
2023-03-04T13:56:36.611Z,46.25
2023-03-04T13:59:26.572Z,46.12
2023-03-04T14:02:10.327Z,46.04
2023-03-04T14:04:43.073Z,46.42
2023-03-04T14:07:24.927Z,46.63
2023-03-04T14:10:00.702Z,46.51
2023-03-04T14:12:33.479Z,46.64
2023-03-04T14:15:05.280Z,46.87
2023-03-04T14:17:39.164Z,46.59
2023-03-04T14:20:24.542Z,46.61
2023-03-04T14:22:51.694Z,47.14
2023-03-04T14:25:27.686Z,46.79
2023-03-04T14:28:18.773Z,47.82
2023-03-04T14:30:53.277Z,47.35
2023-03-04T14:33:24.475Z,47.39
2023-03-04T14:35:58.626Z,46.92
2023-03-04T14:38:27.478Z,47.40
2023-03-04T14:41:00.210Z,47.07
2023-03-04T14:43:28.910Z,47.23
2023-03-04T14:45:58.676Z,47.28
2023-03-04T14:48:29.859Z,47.25
2023-03-04T14:50:57.981Z,47.45
2023-03-04T14:53:33.002Z,47.23
2023-03-04T14:56:05.740Z,47.35
2023-03-04T14:58:37.523Z,47.29
2023-03-04T15:01:21.927Z,47.62
2023-03-04T15:04:08.034Z,47.10
2023-03-04T15:06:40.651Z,47.56
2023-03-04T15:09:23.065Z,47.46
2023-03-04T15:12:01.129Z,48.01
2023-03-04T15:14:50.120Z,48.44
2023-03-04T15:17:25.425Z,48.87
2023-03-04T15:20:07.945Z,49.01
2023-03-04T15:22:55.506Z,48.64
2023-03-04T15:25:22.836Z,48.70
2023-03-04T15:27:50.923Z,48.62
2023-03-04T15:30:20.176Z,49.20
2023-03-04T15:32:47.041Z,49.58
2023-03-04T15:35:15.479Z,49.13
2023-03-04T15:37:42.960Z,49.53
2023-03-04T15:40:41.933Z,49.75
2023-03-04T15:43:14.034Z,50.41
2023-03-04T15:45:41.365Z,50.36
2023-03-04T15:48:13.442Z,50.93
2023-03-04T15:50:43.668Z,51.52
2023-03-04T15:53:31.997Z,51.11
2023-03-04T15:55:59.382Z,52.04
2023-03-04T15:58:27.092Z,51.39
2023-03-04T16:00:53.678Z,51.77
2023-03-04T16:03:21.709Z,52.09
2023-03-04T16:05:50.773Z,52.33
2023-03-04T16:08:20.272Z,52.71
2023-03-04T16:10:47.317Z,53.17
2023-03-04T16:13:22.330Z,53.31
2023-03-04T16:15:49.478Z,54.64
2023-03-04T16:18:17.066Z,54.45
2023-03-04T16:20:46.899Z,53.48
2023-03-04T16:23:20.794Z,53.97
2023-03-04T16:25:49.754Z,54.44
2023-03-04T16:28:19.057Z,53.77
2023-03-04T16:30:45.693Z,54.32
2023-03-04T16:33:12.318Z,53.95
2023-03-04T16:35:39.954Z,53.99
2023-03-04T16:38:25.946Z,53.73
2023-03-04T16:40:52.985Z,53.93
2023-03-04T16:43:19.686Z,53.67
2023-03-04T16:45:46.319Z,53.63
2023-03-04T16:48:12.889Z,54.00
2023-03-04T16:50:39.582Z,54.39
2023-03-04T16:53:20.368Z,53.84
2023-03-04T16:55:46.897Z,53.58
2023-03-04T16:58:13.427Z,53.24
2023-03-04T17:00:40.214Z,53.42
2023-03-04T17:03:06.949Z,52.93
2023-03-04T17:05:33.845Z,53.24
2023-03-04T17:08:00.501Z,53.66
2023-03-04T17:10:27.424Z,53.00
2023-03-04T17:12:54.231Z,52.98
2023-03-04T17:15:21.424Z,53.57
2023-03-04T17:17:48.361Z,53.47
2023-03-04T17:20:17.492Z,53.25
2023-03-04T17:22:44.868Z,52.92
2023-03-04T17:25:12.825Z,53.42
2023-03-04T17:27:39.381Z,53.53
2023-03-04T17:30:08.266Z,54.15
2023-03-04T17:32:35.762Z,54.38
2023-03-04T17:35:03.349Z,54.40
2023-03-04T17:37:30.008Z,54.55
2023-03-04T17:39:56.648Z,54.94
2023-03-04T17:42:23.346Z,55.13
2023-03-04T17:44:49.951Z,55.09
2023-03-04T17:47:17.382Z,55.07
2023-03-04T17:49:44.047Z,55.15
2023-03-04T17:52:11.975Z,55.61
2023-03-04T17:54:38.722Z,55.82
2023-03-04T17:57:06.188Z,55.47
2023-03-04T17:59:35.556Z,56.08
2023-03-04T18:02:02.175Z,57.19
2023-03-04T18:04:28.752Z,56.07
2023-03-04T18:06:55.338Z,56.56
2023-03-04T18:09:21.866Z,56.18
2023-03-04T18:11:48.898Z,56.10
2023-03-04T18:14:15.971Z,55.81
2023-03-04T18:16:42.600Z,55.65
2023-03-04T18:19:09.595Z,55.81
2023-03-04T18:21:36.247Z,56.35
2023-03-04T18:24:03.355Z,56.31
2023-03-04T18:26:30.311Z,56.43
2023-03-04T18:28:57.030Z,56.53
2023-03-04T18:31:29.475Z,56.72
2023-03-04T18:33:58.327Z,56.27
2023-03-04T18:36:25.030Z,56.84
2023-03-04T18:38:51.562Z,56.85
2023-03-04T18:41:18.167Z,56.28
2023-03-04T18:43:44.654Z,56.28
2023-03-04T18:46:37.426Z,56.83
2023-03-04T18:49:08.703Z,57.06
2023-03-04T18:51:35.378Z,56.81
2023-03-04T18:54:02.108Z,56.87
2023-03-04T18:56:37.631Z,56.90
2023-03-04T18:59:27.913Z,57.18
2023-03-04T19:01:55.018Z,56.90
2023-03-04T19:04:25.655Z,57.15
2023-03-04T19:06:52.319Z,57.28
2023-03-04T19:09:18.878Z,57.40
2023-03-04T19:11:47.983Z,56.84
2023-03-04T19:14:14.566Z,56.93
2023-03-04T19:16:41.221Z,57.18
2023-03-04T19:19:08.137Z,57.16
2023-03-04T19:21:38.649Z,57.51
2023-03-04T19:24:05.918Z,57.61
2023-03-04T19:26:32.540Z,57.55
2023-03-04T19:28:59.084Z,57.55
2023-03-04T19:31:25.927Z,57.60
2023-03-04T19:33:52.391Z,57.32
2023-03-04T19:36:18.995Z,57.29
2023-03-04T19:38:48.585Z,57.61
2023-03-04T19:41:17.028Z,57.72
2023-03-04T19:43:44.068Z,57.69
2023-03-04T19:46:11.033Z,58.07
2023-03-04T19:48:39.455Z,57.82
2023-03-04T19:51:29.137Z,58.22
2023-03-04T19:53:56.015Z,57.92
2023-03-04T19:56:23.528Z,58.27
2023-03-04T19:58:52.878Z,58.10
2023-03-04T20:01:28.536Z,57.94
2023-03-04T20:03:57.290Z,57.77
2023-03-04T20:06:24.473Z,57.50
2023-03-04T20:08:51.462Z,57.92
2023-03-04T20:11:18.113Z,57.72
2023-03-04T20:13:44.950Z,57.72
2023-03-04T20:16:12.415Z,58.00
2023-03-04T20:18:39.772Z,57.69
2023-03-04T20:21:06.778Z,57.68
2023-03-04T20:23:33.658Z,57.89
2023-03-04T20:26:00.670Z,57.88
2023-03-04T20:28:27.693Z,57.90
2023-03-04T20:30:57.209Z,57.37
2023-03-04T20:33:23.873Z,57.43
2023-03-04T20:35:50.370Z,57.16
2023-03-04T20:38:17.018Z,57.58
2023-03-04T20:40:44.318Z,57.39
2023-03-04T20:43:10.890Z,57.50
2023-03-04T20:45:37.505Z,57.50
2023-03-04T20:48:04.376Z,57.51
2023-03-04T20:50:31.004Z,57.54
2023-03-04T20:52:57.498Z,57.80
2023-03-04T20:55:24.146Z,57.69
2023-03-04T20:57:50.741Z,57.76
2023-03-04T21:00:17.466Z,57.64
2023-03-04T21:02:43.989Z,58.12
2023-03-04T21:05:10.605Z,57.65
2023-03-04T21:07:37.380Z,58.33
2023-03-04T21:10:04.958Z,58.21
2023-03-04T21:12:31.526Z,58.33
2023-03-04T21:14:58.100Z,58.12
2023-03-04T21:17:24.753Z,58.19
2023-03-04T21:19:51.488Z,58.64
2023-03-04T21:22:19.605Z,58.25
2023-03-04T21:24:47.934Z,58.48
2023-03-04T21:27:16.794Z,58.21
2023-03-04T21:29:43.796Z,58.74
2023-03-04T21:32:24.312Z,58.20
2023-03-04T21:34:53.311Z,57.85
2023-03-04T21:37:24.565Z,57.86
2023-03-04T21:39:51.955Z,57.75
2023-03-04T21:42:18.834Z,57.36
2023-03-04T21:44:49.497Z,57.80
2023-03-04T21:47:19.166Z,57.78
2023-03-04T21:49:45.831Z,58.02
2023-03-04T21:52:13.159Z,57.95
2023-03-04T21:54:39.808Z,57.54
2023-03-04T21:57:06.374Z,57.78
2023-03-04T21:59:32.889Z,57.44
2023-03-04T22:01:59.624Z,57.53
2023-03-04T22:04:26.282Z,58.10
2023-03-04T22:06:52.833Z,57.95
2023-03-04T22:09:19.554Z,58.33
2023-03-04T22:11:46.086Z,57.83
2023-03-04T22:14:15.559Z,57.78
2023-03-04T22:16:54.638Z,57.84
2023-03-04T22:19:27.098Z,57.94
2023-03-04T22:21:54.301Z,57.83
2023-03-04T22:24:21.304Z,57.65
2023-03-04T22:26:48.243Z,57.91
2023-03-04T22:29:14.818Z,57.94
2023-03-04T22:31:41.436Z,57.96
2023-03-04T22:34:13.527Z,57.87
2023-03-04T22:36:42.573Z,57.69
2023-03-04T22:39:11.566Z,58.32
2023-03-04T22:41:38.333Z,58.01
2023-03-04T22:44:09.066Z,58.19
2023-03-04T22:46:38.346Z,58.05
2023-03-04T22:49:10.960Z,58.08
2023-03-04T22:51:38.878Z,58.33
2023-03-04T22:54:05.486Z,58.46
2023-03-04T22:56:33.066Z,58.89
2023-03-04T22:58:59.877Z,58.66
2023-03-04T23:01:26.478Z,58.55
2023-03-04T23:03:53.095Z,58.26
2023-03-04T23:06:22.810Z,58.31
2023-03-04T23:08:50.170Z,58.32
2023-03-04T23:11:23.234Z,57.93
2023-03-04T23:13:50.647Z,58.18
2023-03-04T23:16:19.237Z,58.34
2023-03-04T23:18:47.778Z,58.44
2023-03-04T23:21:21.372Z,58.34
2023-03-04T23:23:48.553Z,57.95
2023-03-04T23:26:27.004Z,58.14
2023-03-04T23:29:00.284Z,57.93
2023-03-04T23:31:31.210Z,57.71
2023-03-04T23:33:58.913Z,58.03
2023-03-04T23:36:29.721Z,58.06
2023-03-04T23:38:56.429Z,58.25
2023-03-04T23:41:26.653Z,57.93
2023-03-04T23:43:54.855Z,57.68
2023-03-04T23:46:22.209Z,58.32
2023-03-04T23:48:49.293Z,57.87
2023-03-04T23:51:22.180Z,58.52
2023-03-04T23:53:50.112Z,58.09
2023-03-04T23:56:20.294Z,58.21
2023-03-04T23:58:47.418Z,58.54
